This is the latest recevied weather packets stored in our database for station/object WMKL. If no packets are shown the sender has not sent any weather packets the latest 10 day(s).
| Time | Temp. | Humidity | Pressure | Rain* | Wind** | Luminosity | Snow |
|---|---|---|---|---|---|---|---|
| 1777612259 | 33.89° C | 52% | 1010 hPa | - | - | - | - |
| 1777608639 | 32.78° C | 59% | 1011 hPa | - | - | - | - |
| 1777605039 | 32.78° C | 55% | 1011 hPa | - | - | - | - |
| 1777601439 | 31.67° C | 62% | 1011 hPa | - | - | - | - |
| 1777597859 | 30° C | 74% | 1010 hPa | - | - | - | - |
| 1777594236 | 27.78° C | 78% | 1009 hPa | - | - | - | - |
| 1777590639 | 26.67° C | 83% | 1008 hPa | - | - | - | - |
| 1777587039 | 26.67° C | 83% | 1007 hPa | - | - | - | - |
| 1777583459 | 26.67° C | 83% | 1007 hPa | - | - | - | - |
| 1777579839 | 27.78° C | 78% | 1008 hPa | - | - | - | - |
| 1777576238 | 28.89° C | 74% | 1009 hPa | - | - | - | - |
| 1777572638 | 28.89° C | 79% | 1010 hPa | - | - | - | - |
| 1777569057 | 28.89° C | 79% | 1010 hPa | - | - | - | - |
| 1777565438 | 28.89° C | 79% | 1011 hPa | - | - | - | - |
| 1777561839 | 28.89° C | 79% | 1011 hPa | - | - | - | - |
| 1777558238 | 30° C | 74% | 1009 hPa | - | - | - | - |
| 1777554657 | 30° C | 74% | 1008 hPa | - | - | - | - |
| 1777551038 | 30.56° C | 70% | 1007 hPa | - | - | - | - |
| 1777547438 | 31.67° C | 70% | 1007 hPa | - | - | - | - |
| 1777543838 | 31.67° C | 66% | 1006 hPa | - | - | - | - |
| 1777540256 | 32.78° C | 66% | 1006 hPa | - | - | - | - |
| 1777536637 | 32.78° C | 62% | 1007 hPa | - | - | - | - |
| 1777533035 | 32.78° C | 62% | 1008 hPa | - | - | - | - |
| 1777529437 | 32.78° C | 62% | 1009 hPa | - | - | - | - |
| 1777525856 | 32.78° C | 66% | 1010 hPa | - | - | - | - |
* Rain since midnight (hover to see other rain measurements)
** Current wind speed in m/s (hover to see current wind gust speed)